Time;durP1;ratioP1;P1;durP2;ratioP2;P2;SDS_P1;SDS_P2;PMS_P1;PMS_P2;Temp;Humidity;BMP_temperature;BMP_pressure;BME280_temperature;BME280_humidity;BME280_pressure;Samples;Min_cycle;Max_cycle;Signal;HPM_P1;HPM_P2
2022/03/27 00:00:44;;;;;;;8.60;6.08;;;;;;;21.48;49.55;99859.54;1761581;81;25728;-86
2022/03/27 00:03:09;;;;;;;9.58;6.37;;;;;;;21.50;49.55;99866.97;1761779;81;25587;-85
2022/03/27 00:05:36;;;;;;;9.48;6.40;;;;;;;21.51;49.52;99868.02;1761695;81;28249;-90
2022/03/27 00:08:02;;;;;;;9.68;6.55;;;;;;;21.52;49.54;99869.63;1761610;81;25423;-90
2022/03/27 00:10:28;;;;;;;11.78;6.65;;;;;;;21.54;49.51;99872.05;1761717;81;25799;-89
2022/03/27 00:12:54;;;;;;;10.88;6.97;;;;;;;21.56;49.51;99876.70;1761661;81;25548;-86
2022/03/27 00:15:20;;;;;;;9.38;6.35;;;;;;;21.56;49.48;99874.70;1761787;81;25612;-88
2022/03/27 00:17:46;;;;;;;8.68;6.33;;;;;;;21.57;49.50;99878.31;1761685;81;28245;-90
2022/03/27 00:20:15;;;;;;;10.40;6.25;;;;;;;21.60;49.48;99878.16;1761556;81;25660;-85
2022/03/27 00:22:41;;;;;;;9.00;6.20;;;;;;;21.61;49.48;99883.95;1761547;81;25462;-89
2022/03/27 00:25:08;;;;;;;9.65;5.95;;;;;;;21.61;49.47;99884.78;1761597;81;25437;-90
2022/03/27 00:27:35;;;;;;;9.63;6.53;;;;;;;21.63;49.45;99889.42;1761783;81;25418;-84
2022/03/27 00:30:02;;;;;;;10.05;6.97;;;;;;;21.63;49.45;99892.79;1761704;81;27435;-89
2022/03/27 00:32:28;;;;;;;9.90;6.37;;;;;;;21.65;49.44;99897.44;1761427;81;25751;-86
2022/03/27 00:34:54;;;;;;;9.33;6.28;;;;;;;21.66;49.42;99897.08;1761723;81;25489;-89
2022/03/27 00:37:20;;;;;;;8.73;6.40;;;;;;;21.68;49.41;99898.11;1761696;81;26213;-88
2022/03/27 00:39:46;;;;;;;8.73;5.80;;;;;;;21.70;49.44;99890.17;1759443;81;25648;-90
2022/03/27 00:42:12;;;;;;;8.15;5.92;;;;;;;21.71;49.40;99882.62;1760757;81;28147;-89
2022/03/27 00:44:39;;;;;;;10.32;6.00;;;;;;;21.72;49.37;99887.84;1761540;81;25473;-88
2022/03/27 00:47:06;;;;;;;9.15;6.12;;;;;;;21.73;49.38;99892.25;1761551;81;25443;-90
2022/03/27 00:49:34;;;;;;;7.22;5.70;;;;;;;21.75;49.35;99896.89;1761679;81;25674;-88
2022/03/27 00:52:01;;;;;;;8.85;6.10;;;;;;;21.76;49.36;99895.74;1761626;81;25604;-89
2022/03/27 00:54:27;;;;;;;9.05;6.03;;;;;;;21.77;49.33;99896.56;1761571;81;27380;-90
2022/03/27 00:56:53;;;;;;;9.00;5.60;;;;;;;21.79;49.32;99891.45;1761552;81;25449;-90
2022/03/27 00:59:19;;;;;;;8.38;5.90;;;;;;;21.79;49.32;99893.63;1761672;81;25506;-90
2022/03/27 01:01:45;;;;;;;7.97;5.80;;;;;;;21.80;49.32;99897.23;1761549;81;26105;-85
2022/03/27 01:04:12;;;;;;;8.10;5.83;;;;;;;21.81;49.35;99900.24;1761659;81;25584;-89
2022/03/27 01:06:43;;;;;;;8.30;5.37;;;;;;;21.81;49.35;99891.88;1764533;79;27386;-88
2022/03/27 01:11:55;;;;;;;8.75;5.28;;;;;;;21.83;49.42;99903.50;1781654;80;25649;-90
2022/03/27 01:14:31;;;;;;;8.23;5.78;;;;;;;21.83;49.33;99902.67;1781872;80;26170;-90
2022/03/27 01:17:08;;;;;;;8.83;5.72;;;;;;;21.83;49.35;99905.47;1780655;80;25681;-85
2022/03/27 01:19:39;;;;;;;8.40;5.95;;;;;;;21.84;49.34;99909.89;1825093;78;27360;-88
2022/03/27 01:22:05;;;;;;;6.70;5.15;;;;;;;21.84;49.31;99917.66;1826459;78;25646;-89
2022/03/27 01:24:31;;;;;;;9.28;5.47;;;;;;;21.84;49.37;99915.48;1826319;78;25577;-90
2022/03/27 01:26:57;;;;;;;8.75;5.87;;;;;;;21.84;49.34;99913.48;1826396;78;25595;-88
2022/03/27 01:29:23;;;;;;;8.45;5.75;;;;;;;21.84;49.36;99909.29;1826250;78;25640;-89
2022/03/27 01:31:51;;;;;;;7.55;4.87;;;;;;;21.86;49.34;99915.33;1826385;78;27575;-85
2022/03/27 01:34:18;;;;;;;6.70;5.42;;;;;;;21.87;49.35;99916.94;1826143;78;26024;-89
2022/03/27 01:36:44;;;;;;;7.30;5.42;;;;;;;21.88;49.35;99921.95;1826431;78;25665;-88
2022/03/27 01:39:14;;;;;;;8.33;5.30;;;;;;;21.88;49.39;99928.31;1826561;78;25398;-89
2022/03/27 01:41:42;;;;;;;7.37;5.50;;;;;;;21.88;49.39;99921.34;1826530;78;25724;-87
2022/03/27 01:44:13;;;;;;;7.70;5.35;;;;;;;21.90;49.39;99925.17;1826441;78;27410;-89
2022/03/27 01:46:41;;;;;;;7.80;5.17;;;;;;;21.90;49.38;99928.78;1826480;78;25907;-90
2022/03/27 01:49:11;;;;;;;7.03;5.22;;;;;;;21.91;49.39;99927.60;1826471;78;25674;-89
2022/03/27 01:51:40;;;;;;;7.80;5.17;;;;;;;21.91;49.37;99926.81;1826847;78;26370;-88
2022/03/27 01:54:06;;;;;;;7.47;5.35;;;;;;;21.91;49.40;99930.39;1826585;78;25734;-88
2022/03/27 01:56:33;;;;;;;8.60;5.83;;;;;;;21.92;49.42;99928.42;1828379;78;28124;-90
2022/03/27 01:59:00;;;;;;;7.37;5.30;;;;;;;21.92;49.40;99925.05;1828970;78;25628;-89
2022/03/27 02:01:26;;;;;;;7.35;4.90;;;;;;;21.94;49.38;99928.28;1828747;78;25831;-90
2022/03/27 02:03:54;;;;;;;7.35;4.85;;;;;;;21.95;49.39;99930.49;1829073;78;25575;-85
2022/03/27 02:06:21;;;;;;;7.65;4.90;;;;;;;21.97;49.44;99924.55;1828811;78;25421;-87
2022/03/27 02:08:47;;;;;;;6.50;4.90;;;;;;;21.97;49.41;99925.95;1798558;78;27399;-89
2022/03/27 02:11:14;;;;;;;7.33;5.10;;;;;;;21.98;49.40;99927.55;1828963;78;25763;-87
2022/03/27 02:13:40;;;;;;;7.90;4.85;;;;;;;21.99;49.39;99930.59;1828726;78;25600;-90
2022/03/27 02:16:06;;;;;;;7.67;5.12;;;;;;;21.98;49.39;99932.56;1829018;78;25644;-90
2022/03/27 02:18:32;;;;;;;7.37;4.80;;;;;;;22.00;49.40;99935.00;1829221;78;25633;-89
2022/03/27 02:21:06;;;;;;;6.25;4.65;;;;;;;22.00;49.41;99942.80;1829051;78;27355;-90
2022/03/27 02:23:31;;;;;;;6.62;4.53;;;;;;;22.01;49.41;99940.22;1828638;78;25634;-89
2022/03/27 02:25:58;;;;;;;7.50;5.05;;;;;;;22.02;49.38;99938.24;1829051;78;25420;-89
2022/03/27 02:28:24;;;;;;;7.62;5.10;;;;;;;22.01;49.42;99941.61;1829114;78;26163;-89
2022/03/27 02:30:50;;;;;;;7.87;5.03;;;;;;;22.04;49.39;99947.05;1829157;78;25631;-87
2022/03/27 02:33:16;;;;;;;7.40;5.15;;;;;;;22.04;49.42;99950.66;1828997;78;27400;-90
2022/03/27 02:35:42;;;;;;;7.08;4.58;;;;;;;22.04;49.39;99952.05;1828702;78;25872;-90
2022/03/27 02:38:09;;;;;;;6.45;4.87;;;;;;;22.05;49.41;99954.27;1829004;78;25578;-89
2022/03/27 02:40:36;;;;;;;6.33;4.58;;;;;;;22.05;49.42;99956.45;1829085;78;25568;-86
2022/03/27 02:43:03;;;;;;;7.12;4.75;;;;;;;22.05;49.43;99950.09;1829154;78;25668;-87
2022/03/27 02:45:30;;;;;;;6.90;4.87;;;;;;;22.07;49.41;99965.87;1829022;78;26825;-89
2022/03/27 02:47:57;;;;;;;5.90;4.67;;;;;;;22.07;49.43;99967.27;1828948;78;26071;-85
2022/03/27 02:50:24;;;;;;;7.75;5.17;;;;;;;22.08;49.42;99958.31;1829051;78;25450;-90
2022/03/27 02:52:51;;;;;;;6.37;4.58;;;;;;;22.09;49.44;99966.91;1829111;78;25461;-88
2022/03/27 02:55:19;;;;;;;7.87;4.85;;;;;;;22.09;49.42;99971.91;1828666;78;25616;-86
2022/03/27 02:57:46;;;;;;;6.78;4.72;;;;;;;22.10;49.46;99966.55;1829134;78;27004;-90
2022/03/27 03:00:13;;;;;;;6.65;4.55;;;;;;;22.10;49.46;99972.73;1829063;78;25725;-90
2022/03/27 03:02:39;;;;;;;6.45;4.53;;;;;;;22.12;49.41;99975.95;1829145;78;25577;-90
2022/03/27 03:05:08;;;;;;;7.97;5.03;;;;;;;22.11;49.46;99974.34;1829021;78;25629;-91
2022/03/27 03:07:34;;;;;;;7.00;5.20;;;;;;;22.11;49.44;99968.19;1829168;78;25620;-90
2022/03/27 03:10:04;;;;;;;7.03;4.80;;;;;;;22.12;49.43;99969.80;1828991;78;27394;-91
2022/03/27 03:12:30;;;;;;;6.40;4.60;;;;;;;22.14;49.45;99969.44;1829142;78;25404;-91
2022/03/27 03:14:56;;;;;;;6.85;4.65;;;;;;;22.14;49.47;99975.02;1828934;78;25632;-90
2022/03/27 03:17:23;;;;;;;6.17;4.58;;;;;;;22.15;49.43;99972.44;1829082;78;25618;-91
2022/03/27 03:19:50;;;;;;;7.15;4.87;;;;;;;22.15;49.45;99974.66;1829089;78;25761;-86
2022/03/27 03:22:17;;;;;;;6.47;4.40;;;;;;;22.15;49.44;99980.24;1828932;78;27403;-91
2022/03/27 03:24:43;;;;;;;6.17;4.40;;;;;;;22.17;49.43;99977.09;1829135;78;25637;-89
2022/03/27 03:27:10;;;;;;;5.62;4.30;;;;;;;22.17;49.42;99974.30;1828694;78;25736;-90
2022/03/27 03:29:36;;;;;;;5.85;4.12;;;;;;;22.17;49.46;99969.50;1829080;78;26235;-90
2022/03/27 03:32:02;;;;;;;6.33;4.60;;;;;;;22.20;49.43;99977.77;1828952;78;25606;-91
2022/03/27 03:34:29;;;;;;;6.53;4.58;;;;;;;22.19;49.42;99975.55;1829059;78;27502;-91
2022/03/27 03:36:56;;;;;;;6.20;4.62;;;;;;;22.19;49.40;99974.73;1828613;78;25857;-91
2022/03/27 03:39:23;;;;;;;6.10;4.30;;;;;;;22.21;49.41;99979.38;1828701;78;25444;-90
2022/03/27 03:41:49;;;;;;;5.80;4.17;;;;;;;22.22;49.40;99978.80;1828949;78;25570;-91
2022/03/27 03:44:15;;;;;;;6.70;4.72;;;;;;;22.21;49.44;99973.80;1828997;78;25634;-89
2022/03/27 03:46:41;;;;;;;7.35;4.65;;;;;;;22.22;49.45;99974.61;1829022;78;28241;-88
2022/03/27 03:49:07;;;;;;;6.35;4.33;;;;;;;22.22;49.44;99973.22;1828852;78;25698;-89
2022/03/27 03:51:36;;;;;;;6.70;4.58;;;;;;;22.23;49.44;99981.23;1828966;78;25463;-90
2022/03/27 03:54:07;;;;;;;6.45;4.20;;;;;;;22.23;49.44;99980.41;1828792;78;26035;-91
2022/03/27 03:56:33;;;;;;;5.92;4.35;;;;;;;22.24;49.42;99989.83;1825073;78;25725;-92
2022/03/27 03:58:59;;;;;;;5.28;4.00;;;;;;;22.24;49.43;99988.42;1823091;78;27400;-90
2022/03/27 04:01:25;;;;;;;5.60;3.90;;;;;;;22.26;49.45;99993.65;1822855;78;25806;-89
2022/03/27 04:03:51;;;;;;;6.60;4.55;;;;;;;22.26;49.42;100002.84;1822897;78;25727;-90
2022/03/27 04:06:17;;;;;;;6.53;3.98;;;;;;;22.26;49.45;100007.03;1822934;78;26167;-89
2022/03/27 04:08:43;;;;;;;5.08;4.03;;;;;;;22.27;49.43;100003.64;1823009;78;25443;-90
2022/03/27 04:11:16;;;;;;;6.08;4.20;;;;;;;22.27;49.43;100006.43;1822882;78;28268;-90
2022/03/27 04:13:37;;;;;;;5.97;4.00;;;;;;;22.28;49.43;100007.47;1821147;78;25563;-86
2022/03/27 04:16:04;;;;;;;5.97;3.95;;;;;;;22.28;49.42;100004.67;1822524;78;25656;-89
2022/03/27 04:18:30;;;;;;;5.15;3.85;;;;;;;22.29;49.45;100011.90;1822936;78;25401;-88
2022/03/27 04:20:56;;;;;;;5.45;3.90;;;;;;;22.30;49.41;100016.87;1822958;78;25771;-87
2022/03/27 04:23:22;;;;;;;6.15;4.45;;;;;;;22.31;49.41;100018.52;1822960;78;27390;-88
2022/03/27 04:25:48;;;;;;;6.20;4.45;;;;;;;22.30;49.43;100017.70;1822899;78;25919;-89
2022/03/27 04:28:14;;;;;;;5.37;3.98;;;;;;;22.31;49.41;100014.33;1822763;78;25650;-91
2022/03/27 04:30:40;;;;;;;5.75;4.15;;;;;;;22.33;49.41;100020.95;1822864;78;25459;-89
2022/03/27 04:33:08;;;;;;;5.40;3.80;;;;;;;22.33;49.43;100028.72;1823054;78;25448;-91
2022/03/27 04:35:34;;;;;;;5.70;3.70;;;;;;;22.34;49.41;100030.94;1822526;78;27481;-88
2022/03/27 04:38:01;;;;;;;5.55;4.12;;;;;;;22.34;49.40;100030.94;1822456;78;25701;-88
2022/03/27 04:40:27;;;;;;;5.12;4.00;;;;;;;22.35;49.42;100035.34;1822835;78;25630;-91
2022/03/27 04:42:52;;;;;;;5.00;3.80;;;;;;;22.35;49.42;100040.36;1822463;78;25628;-89
2022/03/27 04:45:19;;;;;;;4.75;3.80;;;;;;;22.37;49.43;100048.38;1823031;78;25581;-90
2022/03/27 04:47:44;;;;;;;4.90;3.70;;;;;;;22.35;49.44;100047.34;1822927;78;27441;-90
2022/03/27 04:50:10;;;;;;;6.75;4.42;;;;;;;22.37;49.41;100050.59;1820287;78;25704;-89
2022/03/27 04:52:37;;;;;;;5.15;3.85;;;;;;;22.38;49.41;100055.57;1811610;77;25477;-90
2022/03/27 04:55:05;;;;;;;4.95;3.80;;;;;;;22.38;49.40;100054.99;1803310;79;25739;-90
2022/03/27 04:57:37;;;;;;;5.12;3.80;;;;;;;22.39;49.41;100066.38;1776699;78;25610;-90
2022/03/27 05:00:10;;;;;;;5.67;4.00;;;;;;;22.39;49.42;100071.17;1762476;81;27383;-89
2022/03/27 05:02:34;;;;;;;5.30;3.75;;;;;;;22.39;49.40;100072.57;1794851;79;25625;-88
2022/03/27 05:05:00;;;;;;;4.97;3.60;;;;;;;22.39;49.40;100071.97;1795585;79;25725;-90
2022/03/27 05:07:25;;;;;;;4.92;3.77;;;;;;;22.39;49.41;100070.57;1795603;79;25563;-88
2022/03/27 05:09:51;;;;;;;4.67;3.60;;;;;;;22.40;49.40;100073.58;1795696;79;25629;-89
2022/03/27 05:12:17;;;;;;;5.42;4.12;;;;;;;22.41;49.41;100075.80;1767475;79;28248;-89
2022/03/27 05:14:43;;;;;;;5.15;3.85;;;;;;;22.41;49.43;100075.22;1793836;80;25427;-86
2022/03/27 05:17:09;;;;;;;4.58;3.50;;;;;;;22.42;49.41;100085.21;1794105;80;25635;-90
2022/03/27 05:19:35;;;;;;;4.97;3.62;;;;;;;22.43;49.40;100082.63;1794042;80;25633;-91
2022/03/27 05:22:01;;;;;;;5.33;3.80;;;;;;;22.42;49.40;100086.61;1794000;80;25638;-89
2022/03/27 05:24:28;;;;;;;4.55;3.65;;;;;;;22.43;49.39;100086.03;1794125;80;27439;-91
2022/03/27 05:26:54;;;;;;;4.97;3.60;;;;;;;22.43;49.40;100093.80;1793544;80;25607;-88
2022/03/27 05:29:21;;;;;;;5.20;3.72;;;;;;;22.44;49.41;100098.81;1793932;80;25613;-90
2022/03/27 05:31:47;;;;;;;5.03;3.45;;;;;;;22.45;49.39;100097.64;1793581;80;26296;-91
2022/03/27 05:34:13;;;;;;;5.12;3.62;;;;;;;22.47;49.41;100094.48;1794045;80;25615;-89
2022/03/27 05:36:39;;;;;;;4.95;3.52;;;;;;;22.47;49.41;100095.88;1772619;79;27453;-91
2022/03/27 05:39:05;;;;;;;5.60;4.00;;;;;;;22.48;49.40;100095.52;1754905;81;25656;-91
2022/03/27 05:41:31;;;;;;;5.67;3.77;;;;;;;22.48;49.37;100093.33;1754963;80;25659;-90
2022/03/27 05:43:57;;;;;;;5.20;3.85;;;;;;;22.48;49.38;100093.33;1755110;81;25437;-91
2022/03/27 05:46:23;;;;;;;5.50;3.47;;;;;;;22.48;49.36;100102.50;1751566;80;25473;-91
2022/03/27 05:48:49;;;;;;;5.22;3.75;;;;;;;22.49;49.37;100104.14;1755086;81;28298;-96
2022/03/27 05:51:15;;;;;;;6.10;3.90;;;;;;;22.49;49.40;100106.94;1754963;81;25620;-89
2022/03/27 05:53:41;;;;;;;7.30;4.10;;;;;;;22.50;49.36;100114.72;1755161;81;25654;-91
2022/03/27 05:56:07;;;;;;;5.22;4.00;;;;;;;22.51;49.39;100119.94;1754806;81;25662;-91
2022/03/27 05:58:37;;;;;;;6.37;4.25;;;;;;;22.51;49.39;100117.75;1755073;81;25627;-92
2022/03/27 06:01:05;;;;;;;5.33;3.42;;;;;;;22.52;49.35;100117.97;1754871;81;28327;-88
2022/03/27 06:03:32;;;;;;;5.58;3.80;;;;;;;22.52;49.35;100123.55;1754928;81;25949;-88
2022/03/27 06:05:58;;;;;;;5.70;3.62;;;;;;;22.53;49.38;100123.77;1754498;81;25777;-82
2022/03/27 06:08:25;;;;;;;6.08;3.90;;;;;;;22.55;49.43;100121.44;1755088;81;25659;-92
2022/03/27 06:10:51;;;;;;;5.28;3.58;;;;;;;22.58;49.41;100124.09;1755219;81;25639;-93
2022/03/27 06:13:19;;;;;;;4.87;3.62;;;;;;;22.60;49.38;100126.80;1754919;81;26962;-92
2022/03/27 16:38:35;;;;;;;3.95;2.35;;;;;;;23.05;55.29;99776.64;1750849;80;25470;-93
2022/03/27 16:44:46;;;;;;;4.70;2.80;;;;;;;23.03;55.26;99778.20;1673876;84;27470;-94
2022/03/27 16:47:13;;;;;;;4.78;2.58;;;;;;;23.07;55.23;99776.27;1625436;87;25593;-92
2022/03/27 16:49:39;;;;;;;3.98;2.40;;;;;;;23.08;55.16;99772.89;1624053;88;25796;-92
2022/03/27 16:52:09;;;;;;;6.75;2.67;;;;;;;23.05;55.17;99761.27;1623770;88;26276;-92
2022/03/27 18:16:39;;;;;;;3.55;2.58;;;;;;;22.82;55.02;99773.81;1745229;80;25711;-91
2022/03/27 18:19:06;;;;;;;4.62;2.55;;;;;;;22.81;54.86;99777.22;1756605;80;26268;-92
2022/03/27 18:21:38;;;;;;;3.20;2.05;;;;;;;22.86;54.73;99771.09;1756568;81;25738;-92
2022/03/27 18:24:33;;;;;;;4.28;2.60;;;;;;;22.88;54.71;99776.53;1687269;83;27333;-90
